createdAt,value
2022-08-28T00:00:29.410Z,100363.94
2022-08-28T00:03:10.179Z,100369.24
2022-08-28T00:05:38.999Z,100366.96
2022-08-28T00:08:06.532Z,100364.66
2022-08-28T00:10:33.069Z,100366.13
2022-08-28T00:12:59.484Z,100366.52
2022-08-28T00:15:31.755Z,100366.30
2022-08-28T00:17:59.139Z,100360.36
2022-08-28T00:20:27.361Z,100364.19
2022-08-28T00:22:55.002Z,100362.69
2022-08-28T00:25:24.256Z,100362.68
2022-08-28T00:27:52.686Z,100365.60
2022-08-28T00:30:25.437Z,100364.77
2022-08-28T00:32:53.750Z,100360.02
2022-08-28T00:35:22.731Z,100364.14
2022-08-28T00:37:50.083Z,100370.37
2022-08-28T00:40:20.007Z,100368.25
2022-08-28T00:43:01.220Z,100365.70
2022-08-28T00:45:28.684Z,100364.77
2022-08-28T00:47:55.895Z,100362.66
2022-08-28T00:50:50.599Z,100364.13
2022-08-28T00:53:18.152Z,100361.73
2022-08-28T00:55:44.873Z,100358.80
2022-08-28T00:58:13.202Z,100356.71
2022-08-28T01:00:40.607Z,100353.33
2022-08-28T01:03:08.133Z,100353.44
2022-08-28T01:05:35.906Z,100354.79
2022-08-28T01:08:03.805Z,100354.42
2022-08-28T01:10:34.158Z,100353.13
2022-08-28T01:13:02.397Z,100351.55
2022-08-28T01:15:33.057Z,100352.96
2022-08-28T01:18:08.025Z,100347.01
2022-08-28T01:20:41.175Z,100347.47
2022-08-28T01:23:26.262Z,100342.89
2022-08-28T01:25:53.481Z,100340.38
2022-08-28T01:28:20.310Z,100342.52
2022-08-28T01:30:48.613Z,100337.06
2022-08-28T01:33:15.937Z,100336.40
2022-08-28T01:35:46.902Z,100340.00
2022-08-28T01:38:20.207Z,100340.32
2022-08-28T01:40:53.030Z,100342.11
2022-08-28T01:43:23.120Z,100345.69
2022-08-28T01:45:53.724Z,100353.65
2022-08-28T01:48:23.655Z,100352.74
2022-08-28T01:50:50.494Z,100354.31
2022-08-28T01:53:19.120Z,100357.89
2022-08-28T01:55:51.786Z,100355.58
2022-08-28T01:58:19.126Z,100354.00
2022-08-28T02:00:46.094Z,100355.27
2022-08-28T02:03:12.991Z,100356.01
2022-08-28T02:05:39.666Z,100359.59
2022-08-28T02:08:07.160Z,100358.91
2022-08-28T02:10:37.333Z,100360.77
2022-08-28T02:13:05.620Z,100362.08
2022-08-28T02:15:35.274Z,100360.85
2022-08-28T02:18:02.170Z,100360.00
2022-08-28T02:20:29.780Z,100361.41
2022-08-28T02:22:57.653Z,100362.13
2022-08-28T02:25:25.371Z,100361.48
2022-08-28T02:27:52.611Z,100354.27
2022-08-28T02:30:19.607Z,100355.38
2022-08-28T02:32:46.531Z,100356.79
2022-08-28T02:35:16.129Z,100362.31
2022-08-28T02:37:43.885Z,100364.30
2022-08-28T02:40:13.567Z,100372.15
2022-08-28T02:42:41.480Z,100367.06
2022-08-28T02:45:11.045Z,100363.38
2022-08-28T02:47:39.342Z,100360.91
2022-08-28T02:50:08.646Z,100362.56
2022-08-28T02:52:36.813Z,100361.39
2022-08-28T02:55:08.992Z,100364.44
2022-08-28T02:57:35.389Z,100364.88
2022-08-28T03:00:05.559Z,100370.41
2022-08-28T03:02:32.013Z,100369.90
2022-08-28T03:04:59.847Z,100371.02
2022-08-28T03:07:28.241Z,100369.48
2022-08-28T03:09:54.966Z,100372.35
2022-08-28T03:12:24.766Z,100376.59
2022-08-28T03:14:52.609Z,100377.51
2022-08-28T03:17:21.420Z,100375.42
2022-08-28T03:19:51.865Z,100377.27
2022-08-28T03:22:41.922Z,100377.27
2022-08-28T03:25:09.728Z,100379.05
2022-08-28T03:27:36.244Z,100376.76
2022-08-28T03:30:06.491Z,100376.05
2022-08-28T03:32:33.357Z,100373.95
2022-08-28T03:34:59.725Z,100371.48
2022-08-28T03:37:26.549Z,100369.22
2022-08-28T03:39:53.497Z,100367.64
2022-08-28T03:42:19.954Z,100365.15
2022-08-28T03:44:48.907Z,100363.95
2022-08-28T03:47:15.881Z,100366.77
2022-08-28T03:49:44.705Z,100375.80
2022-08-28T03:52:12.090Z,100379.67
2022-08-28T03:54:38.763Z,100379.64
2022-08-28T03:57:07.024Z,100375.77
2022-08-28T03:59:35.293Z,100371.71
2022-08-28T04:02:01.777Z,100375.10
2022-08-28T04:04:28.160Z,100377.62
2022-08-28T04:06:54.732Z,100381.14
2022-08-28T04:09:21.210Z,100388.55
2022-08-28T04:11:47.579Z,100394.17
2022-08-28T04:14:14.033Z,100397.17
2022-08-28T04:16:40.855Z,100396.97
2022-08-28T04:19:07.397Z,100400.14
2022-08-28T04:21:33.797Z,100397.64
2022-08-28T04:24:00.146Z,100401.20
2022-08-28T04:26:27.265Z,100400.80
2022-08-28T04:28:55.833Z,100401.02
2022-08-28T04:31:31.596Z,100399.27
2022-08-28T04:34:04.486Z,100393.41
2022-08-28T04:36:32.970Z,100395.17
2022-08-28T04:38:59.875Z,100394.37
2022-08-28T04:41:27.070Z,100391.84
2022-08-28T04:43:56.562Z,100393.55
2022-08-28T04:58:25.721Z,100391.08
2022-08-28T05:00:54.981Z,100392.38
2022-08-28T05:03:24.017Z,100392.70
2022-08-28T05:05:54.193Z,100401.72
2022-08-28T05:08:24.294Z,100401.54
2022-08-28T05:10:53.099Z,100399.98
2022-08-28T05:13:21.823Z,100400.89
2022-08-28T05:15:51.993Z,100402.25
2022-08-28T05:18:24.015Z,100401.55
2022-08-28T05:20:51.942Z,100398.64
2022-08-28T05:23:19.738Z,100400.69
2022-08-28T05:25:53.739Z,100402.11
2022-08-28T05:28:22.089Z,100400.48
2022-08-28T05:30:50.461Z,100402.55
2022-08-28T05:33:18.659Z,100404.39
2022-08-28T05:35:47.464Z,100401.90
2022-08-28T05:38:16.890Z,100404.86
2022-08-28T05:40:49.398Z,100408.50
2022-08-28T05:43:18.423Z,100413.02
2022-08-28T05:45:46.325Z,100415.00
2022-08-28T05:48:14.447Z,100417.48
2022-08-28T05:50:47.425Z,100414.09
2022-08-28T05:53:18.136Z,100416.93
2022-08-28T05:55:51.660Z,100419.88
2022-08-28T05:58:29.167Z,100421.92
2022-08-28T06:01:10.079Z,100427.39
2022-08-28T06:03:39.736Z,100430.31
2022-08-28T06:06:09.129Z,100429.30
2022-08-28T06:08:37.497Z,100432.60
2022-08-28T06:11:07.561Z,100444.53
2022-08-28T06:13:36.758Z,100443.64
2022-08-28T06:16:05.709Z,100444.09
2022-08-28T06:18:36.185Z,100444.30
2022-08-28T06:21:04.402Z,100443.35
2022-08-28T06:23:32.555Z,100442.97
2022-08-28T06:26:00.813Z,100442.90
2022-08-28T06:28:28.885Z,100447.17
2022-08-28T06:31:18.384Z,100444.30
2022-08-28T06:33:46.242Z,100448.55
2022-08-28T06:36:14.040Z,100443.84
2022-08-28T06:38:46.693Z,100443.81
2022-08-28T06:41:15.702Z,100441.52
2022-08-28T06:43:43.622Z,100442.83
2022-08-28T06:46:11.641Z,100442.86
2022-08-28T06:48:39.583Z,100447.80
2022-08-28T06:51:09.918Z,100445.17
2022-08-28T06:53:40.035Z,100444.23
2022-08-28T06:56:23.642Z,100444.43
2022-08-28T06:58:58.079Z,100444.11
2022-08-28T07:01:45.619Z,100446.39
2022-08-28T07:04:14.699Z,100450.66
2022-08-28T07:06:46.990Z,100450.16
2022-08-28T07:09:15.452Z,100445.96
2022-08-28T07:11:46.733Z,100444.85
2022-08-28T07:14:14.659Z,100447.73
2022-08-28T07:16:44.605Z,100451.45
2022-08-28T07:19:14.130Z,100449.08
2022-08-28T07:21:44.931Z,100451.00
2022-08-28T07:24:15.308Z,100451.65
2022-08-28T07:26:44.618Z,100446.81
2022-08-28T07:29:13.214Z,100446.34
2022-08-28T07:31:44.161Z,100445.98
2022-08-28T07:34:13.690Z,100447.69
2022-08-28T07:36:42.586Z,100451.47
2022-08-28T07:39:13.560Z,100452.56
2022-08-28T07:41:43.034Z,100456.30
2022-08-28T07:44:32.772Z,100462.90
2022-08-28T07:47:05.672Z,100468.46
2022-08-28T07:49:35.159Z,100465.48
2022-08-28T07:52:05.070Z,100468.31
2022-08-28T07:54:33.085Z,100465.77
2022-08-28T07:57:02.196Z,100461.13
2022-08-28T07:59:36.528Z,100464.20
2022-08-28T08:02:06.982Z,100462.05
2022-08-28T08:04:35.435Z,100462.68
2022-08-28T08:07:05.011Z,100460.77
2022-08-28T08:09:38.694Z,100464.00
2022-08-28T08:12:07.977Z,100467.81
2022-08-28T08:14:40.531Z,100469.69
2022-08-28T08:17:09.446Z,100473.36
2022-08-28T08:19:37.311Z,100476.40
2022-08-28T08:22:06.247Z,100478.75
2022-08-28T08:24:34.545Z,100482.33
2022-08-28T08:27:03.256Z,100481.25
2022-08-28T08:29:35.817Z,100482.17
2022-08-28T08:32:10.473Z,100485.36
2022-08-28T08:34:43.078Z,100486.97
2022-08-28T08:37:13.483Z,100483.98
2022-08-28T08:39:42.843Z,100486.48
2022-08-28T08:42:27.861Z,100486.96
2022-08-28T08:44:58.334Z,100490.75
2022-08-28T08:47:35.165Z,100494.14
2022-08-28T08:50:13.329Z,100494.40
2022-08-28T08:53:16.307Z,100494.66
2022-08-28T08:55:50.845Z,100498.20
2022-08-28T08:58:42.163Z,100503.34
2022-08-28T09:01:20.778Z,100504.30
2022-08-28T09:04:09.919Z,100508.72
2022-08-28T09:06:50.330Z,100510.27
2022-08-28T09:09:26.676Z,100513.24
2022-08-28T09:11:58.578Z,100510.67
2022-08-28T09:14:53.335Z,100512.39
2022-08-28T09:17:30.368Z,100516.39
2022-08-28T09:19:58.490Z,100514.25
2022-08-28T09:22:26.340Z,100520.09
2022-08-28T09:24:55.281Z,100519.06
2022-08-28T09:27:28.763Z,100521.91
2022-08-28T09:30:10.348Z,100524.69
2022-08-28T09:32:41.746Z,100529.06
2022-08-28T09:35:24.776Z,100528.30
2022-08-28T09:37:52.803Z,100525.46
2022-08-28T09:40:25.455Z,100523.61
2022-08-28T09:43:27.331Z,100523.38
2022-08-28T09:46:16.820Z,100526.31
2022-08-28T09:48:47.609Z,100527.83
2022-08-28T09:51:21.372Z,100526.58
2022-08-28T09:53:52.208Z,100528.59
2022-08-28T09:56:36.494Z,100531.95
2022-08-28T09:59:13.731Z,100533.70
2022-08-28T10:01:43.410Z,100533.73
2022-08-28T10:04:16.816Z,100532.52
2022-08-28T10:06:49.635Z,100534.55
2022-08-28T10:09:39.177Z,100532.67
2022-08-28T10:12:26.937Z,100535.06
2022-08-28T10:14:57.410Z,100534.48
2022-08-28T10:17:46.189Z,100535.73
2022-08-28T10:20:22.772Z,100539.12
2022-08-28T10:23:17.924Z,100537.69
2022-08-28T10:26:13.845Z,100537.27
2022-08-28T10:28:48.073Z,100535.66
2022-08-28T10:31:37.713Z,100537.70
2022-08-28T10:34:29.748Z,100536.18
2022-08-28T10:37:10.917Z,100533.48
2022-08-28T10:39:51.897Z,100539.54
2022-08-28T10:42:37.089Z,100536.17
2022-08-28T10:45:08.748Z,100536.54
2022-08-28T10:47:41.885Z,100541.23
2022-08-28T10:50:51.905Z,100544.03
2022-08-28T10:53:48.716Z,100550.98
2022-08-28T10:56:21.854Z,100555.37
2022-08-28T10:58:55.526Z,100555.00
2022-08-28T11:01:30.699Z,100557.44
2022-08-28T11:04:01.339Z,100558.75
2022-08-28T11:06:37.113Z,100558.80
2022-08-28T11:09:25.130Z,100557.62
2022-08-28T11:12:01.972Z,100558.39
2022-08-28T11:14:47.841Z,100561.09
2022-08-28T11:17:27.623Z,100562.58
2022-08-28T11:20:17.534Z,100565.66
2022-08-28T11:23:04.145Z,100566.15
2022-08-28T11:25:51.170Z,100566.59
2022-08-28T11:28:47.464Z,100565.20
2022-08-28T11:31:16.301Z,100565.68
2022-08-28T11:34:00.112Z,100566.67
2022-08-28T11:36:29.900Z,100567.48
2022-08-28T11:38:58.278Z,100566.01
2022-08-28T11:42:01.204Z,100564.46
2022-08-28T12:00:46.423Z,100575.46
2022-08-28T12:03:28.498Z,100576.80
2022-08-28T12:05:58.669Z,100577.27
2022-08-28T12:08:44.877Z,100577.24
2022-08-28T12:11:40.920Z,100581.29
2022-08-28T12:14:08.659Z,100583.45
2022-08-28T12:16:58.364Z,100583.84
2022-08-28T12:19:31.050Z,100584.17
2022-08-28T12:22:05.364Z,100585.97
2022-08-28T12:24:35.583Z,100589.10
2022-08-28T12:27:06.445Z,100585.05
2022-08-28T12:29:55.566Z,100582.09
2022-08-28T12:32:41.410Z,100588.23
2022-08-28T12:35:21.741Z,100584.77
2022-08-28T12:37:56.054Z,100586.45
2022-08-28T12:40:50.511Z,100583.33
2022-08-28T12:43:27.849Z,100580.04
2022-08-28T12:46:08.430Z,100578.59
2022-08-28T12:48:52.150Z,100577.52
2022-08-28T12:51:23.584Z,100577.20
2022-08-28T12:53:57.752Z,100576.35
2022-08-28T12:56:30.136Z,100575.55
2022-08-28T12:59:56.395Z,100577.02
2022-08-28T13:02:34.885Z,100578.24
2022-08-28T13:05:12.140Z,100577.33
2022-08-28T13:07:47.386Z,100577.63
2022-08-28T13:10:23.192Z,100577.92
2022-08-28T13:12:59.809Z,100580.91
2022-08-28T13:15:47.990Z,100580.88
2022-08-28T13:18:34.399Z,100582.50
2022-08-28T13:21:19.986Z,100582.54
2022-08-28T13:24:20.555Z,100582.08
2022-08-28T13:26:51.014Z,100582.08
2022-08-28T13:29:24.458Z,100583.81
2022-08-28T13:32:02.139Z,100583.46
2022-08-28T13:34:32.698Z,100585.88
2022-08-28T13:37:20.077Z,100585.90
2022-08-28T13:39:48.544Z,100585.06
2022-08-28T13:42:18.252Z,100588.20
2022-08-28T13:44:49.128Z,100583.86
2022-08-28T13:47:17.325Z,100584.48
2022-08-28T13:49:46.772Z,100584.10
2022-08-28T13:52:15.141Z,100586.52
2022-08-28T13:54:45.374Z,100589.63
2022-08-28T13:57:14.304Z,100592.30
2022-08-28T13:59:42.116Z,100593.78
2022-08-28T14:02:33.102Z,100596.70
2022-08-28T14:05:01.104Z,100594.38
2022-08-28T14:07:29.512Z,100598.40
2022-08-28T14:09:57.937Z,100599.55
2022-08-28T14:12:33.011Z,100601.77
2022-08-28T14:15:02.888Z,100602.69
2022-08-28T14:17:31.228Z,100602.36
2022-08-28T14:20:00.422Z,100602.80
2022-08-28T14:22:28.586Z,100603.34
2022-08-28T14:24:56.553Z,100601.90
2022-08-28T14:27:24.361Z,100606.42
2022-08-28T14:29:53.581Z,100606.86
2022-08-28T14:32:21.385Z,100605.98
2022-08-28T14:34:50.654Z,100609.26
2022-08-28T14:37:18.509Z,100610.15
2022-08-28T14:39:46.422Z,100608.36
2022-08-28T14:42:14.195Z,100608.59
2022-08-28T14:44:41.945Z,100604.88
2022-08-28T14:47:09.802Z,100609.27
2022-08-28T14:49:37.828Z,100606.35
2022-08-28T14:52:05.741Z,100608.90
2022-08-28T14:54:33.934Z,100610.66
2022-08-28T14:57:02.120Z,100611.34
2022-08-28T14:59:31.403Z,100613.83
2022-08-28T15:02:00.357Z,100615.73
2022-08-28T15:04:37.667Z,100615.53
2022-08-28T15:07:10.654Z,100616.80
2022-08-28T15:09:41.593Z,100612.69
2022-08-28T15:12:09.467Z,100610.61
2022-08-28T15:14:37.639Z,100608.02
2022-08-28T15:17:05.755Z,100610.09
2022-08-28T15:19:33.980Z,100614.48
2022-08-28T15:22:04.214Z,100610.73
2022-08-28T15:24:34.455Z,100613.79
2022-08-28T15:27:02.621Z,100607.88
2022-08-28T15:29:30.621Z,100604.36
2022-08-28T15:31:59.004Z,100605.04
2022-08-28T15:34:28.581Z,100605.66
2022-08-28T15:36:57.896Z,100604.52
2022-08-28T15:39:46.011Z,100607.62
2022-08-28T15:42:15.330Z,100612.61
2022-08-28T15:44:43.456Z,100614.11
2022-08-28T15:47:13.805Z,100618.38
2022-08-28T15:49:48.707Z,100622.34
2022-08-28T15:52:19.204Z,100621.20
2022-08-28T15:54:48.357Z,100623.48
2022-08-28T15:57:16.253Z,100627.85
2022-08-28T15:59:48.551Z,100629.98
2022-08-28T16:02:21.497Z,100629.33
2022-08-28T16:04:50.242Z,100634.48
2022-08-28T16:07:19.791Z,100636.36
2022-08-28T16:09:47.942Z,100634.95
2022-08-28T16:12:15.726Z,100638.63
2022-08-28T16:14:43.883Z,100641.31
2022-08-28T16:17:11.887Z,100643.48
2022-08-28T16:19:40.809Z,100647.39
2022-08-28T16:22:15.970Z,100646.68
2022-08-28T16:24:45.439Z,100645.10
2022-08-28T16:27:15.762Z,100644.20
2022-08-28T16:29:44.745Z,100649.94
2022-08-28T16:32:13.004Z,100651.06
2022-08-28T16:34:41.268Z,100651.95
2022-08-28T16:37:13.147Z,100655.73
2022-08-28T16:39:43.852Z,100655.38
2022-08-28T16:42:11.715Z,100656.62
2022-08-28T16:44:39.491Z,100659.66
2022-08-28T16:47:07.544Z,100658.66
2022-08-28T16:49:35.398Z,100657.59
2022-08-28T16:52:03.598Z,100661.67
2022-08-28T16:54:31.360Z,100662.05
2022-08-28T16:56:59.238Z,100662.94
2022-08-28T16:59:27.090Z,100659.55
2022-08-28T17:01:56.057Z,100663.63
2022-08-28T17:04:25.726Z,100666.27
2022-08-28T17:06:53.615Z,100667.09
2022-08-28T17:09:23.531Z,100663.52
2022-08-28T17:11:52.207Z,100664.98
2022-08-28T17:14:22.063Z,100663.41
2022-08-28T17:16:51.426Z,100661.52
2022-08-28T17:19:20.947Z,100662.61
2022-08-28T17:22:08.257Z,100666.17
2022-08-28T17:24:36.249Z,100665.83
2022-08-28T17:27:05.778Z,100669.34
2022-08-28T17:29:35.535Z,100672.20
2022-08-28T17:32:05.300Z,100667.98
2022-08-28T17:34:33.718Z,100672.77
2022-08-28T17:37:02.531Z,100676.90
2022-08-28T17:39:30.954Z,100676.23
2022-08-28T17:41:58.778Z,100677.84
2022-08-28T17:44:26.826Z,100679.85
2022-08-28T17:46:54.581Z,100679.49
2022-08-28T17:49:22.898Z,100680.95
2022-08-28T17:51:51.170Z,100681.17
2022-08-28T17:54:22.726Z,100678.36
2022-08-28T17:56:52.377Z,100682.30
2022-08-28T17:59:22.347Z,100680.38
2022-08-28T18:01:51.096Z,100684.67
2022-08-28T18:04:24.509Z,100687.03
2022-08-28T18:06:54.637Z,100690.92
2022-08-28T18:09:24.506Z,100690.23
2022-08-28T18:11:52.461Z,100693.08
2022-08-28T18:14:21.350Z,100693.98
2022-08-28T18:16:49.452Z,100700.73
2022-08-28T18:19:17.471Z,100706.98
2022-08-28T18:21:46.655Z,100712.48
2022-08-28T18:24:14.481Z,100717.96
2022-08-28T18:26:43.440Z,100719.75
2022-08-28T18:29:14.514Z,100727.38
2022-08-28T18:31:43.385Z,100729.88
2022-08-28T18:34:11.774Z,100733.09
2022-08-28T18:36:44.095Z,100736.46
2022-08-28T18:39:13.100Z,100738.59
2022-08-28T18:41:44.527Z,100742.16
2022-08-28T18:44:14.455Z,100744.27
2022-08-28T18:46:44.102Z,100748.36
2022-08-28T18:49:12.904Z,100744.84
2022-08-28T18:51:43.137Z,100749.98
2022-08-28T18:54:13.513Z,100750.16
2022-08-28T18:56:45.792Z,100751.92
2022-08-28T18:59:13.712Z,100752.13
2022-08-28T19:01:42.242Z,100753.20
2022-08-28T19:04:10.170Z,100754.98
2022-08-28T19:06:38.185Z,100758.00
2022-08-28T19:09:06.506Z,100756.92
2022-08-28T19:11:35.838Z,100761.00
2022-08-28T19:14:04.216Z,100765.79
2022-08-28T19:16:32.518Z,100770.21
2022-08-28T19:19:02.023Z,100774.81
2022-08-28T19:21:30.227Z,100781.73
2022-08-28T19:23:58.172Z,100782.27
2022-08-28T19:26:27.650Z,100784.05
2022-08-28T19:28:55.679Z,100782.46
2022-08-28T19:31:25.378Z,100780.01
2022-08-28T19:33:53.575Z,100781.95
2022-08-28T19:36:21.792Z,100783.19
2022-08-28T19:38:50.772Z,100787.44
2022-08-28T19:41:18.789Z,100787.09
2022-08-28T19:43:46.718Z,100788.87
2022-08-28T19:46:19.632Z,100790.11
2022-08-28T19:48:50.359Z,100794.52
2022-08-28T19:51:23.489Z,100794.00
2022-08-28T19:53:57.680Z,100798.61
2022-08-28T19:56:28.818Z,100797.55
2022-08-28T19:58:59.320Z,100800.02
2022-08-28T20:01:32.892Z,100800.02
2022-08-28T20:04:01.286Z,100802.48
2022-08-28T20:06:32.039Z,100805.84
2022-08-28T20:09:01.270Z,100807.10
2022-08-28T20:11:30.925Z,100808.33
2022-08-28T20:14:04.261Z,100811.36
2022-08-28T20:16:35.968Z,100812.06
2022-08-28T20:19:07.785Z,100816.13
2022-08-28T20:21:38.395Z,100814.89
2022-08-28T20:24:10.033Z,100817.72
2022-08-28T20:26:37.899Z,100822.14
2022-08-28T20:29:07.391Z,100827.27
2022-08-28T20:31:37.056Z,100833.27
2022-08-28T20:34:05.032Z,100836.46
2022-08-28T20:36:32.924Z,100840.73
2022-08-28T20:39:02.316Z,100843.02
2022-08-28T20:41:30.174Z,100843.20
2022-08-28T20:43:57.887Z,100842.48
2022-08-28T20:46:25.783Z,100841.42
2022-08-28T20:48:53.758Z,100844.06
2022-08-28T20:51:41.514Z,100844.77
2022-08-28T20:54:09.416Z,100847.61
2022-08-28T20:56:37.587Z,100847.42
2022-08-28T20:59:05.752Z,100851.50
2022-08-28T21:01:33.945Z,100850.80
2022-08-28T21:04:02.320Z,100849.76
2022-08-28T21:06:31.183Z,100848.86
2022-08-28T21:08:59.385Z,100852.75
2022-08-28T21:11:29.502Z,100851.68
2022-08-28T21:13:57.245Z,100852.21
2022-08-28T21:16:25.097Z,100858.23
2022-08-28T21:19:14.452Z,100858.41
2022-08-28T21:21:41.839Z,100862.15
2022-08-28T21:24:12.506Z,100867.45
2022-08-28T21:26:43.318Z,100869.23
2022-08-28T21:29:14.056Z,100871.86
2022-08-28T21:31:44.453Z,100875.39
2022-08-28T21:34:12.211Z,100881.08
2022-08-28T21:36:49.557Z,100880.16
2022-08-28T21:39:20.682Z,100880.70
2022-08-28T21:41:49.430Z,100880.17
2022-08-28T21:44:18.260Z,100880.16
2022-08-28T21:46:46.186Z,100876.98
2022-08-28T21:49:13.945Z,100874.54
2022-08-28T21:51:41.886Z,100874.00
2022-08-28T21:54:09.753Z,100874.02
2022-08-28T21:56:37.702Z,100874.52
2022-08-28T21:59:05.490Z,100878.40
2022-08-28T22:01:33.378Z,100880.16
2022-08-28T22:04:01.353Z,100884.95
2022-08-28T22:06:30.123Z,100889.55
2022-08-28T22:08:58.247Z,100885.30
2022-08-28T22:11:26.939Z,100885.84
2022-08-28T22:13:56.911Z,100885.30
2022-08-28T22:16:26.335Z,100888.48
2022-08-28T22:18:54.694Z,100888.14
2022-08-28T22:21:43.867Z,100887.77
2022-08-28T22:24:13.436Z,100892.55
2022-08-28T22:26:43.278Z,100894.66
2022-08-28T22:29:11.643Z,100895.73
2022-08-28T22:31:45.873Z,100896.08
2022-08-28T22:34:14.904Z,100897.64
2022-08-28T22:36:42.784Z,100892.52
2022-08-28T22:39:10.569Z,100894.10
2022-08-28T22:41:38.745Z,100896.23
2022-08-28T22:44:07.331Z,100895.34
2022-08-28T22:46:36.049Z,100899.94
2022-08-28T22:49:04.508Z,100901.88
2022-08-28T22:51:34.430Z,100906.66
2022-08-28T22:54:02.799Z,100903.83
2022-08-28T22:56:30.568Z,100903.48
2022-08-28T22:58:58.545Z,100902.94
2022-08-28T23:01:26.844Z,100910.02
2022-08-28T23:03:54.975Z,100906.47
2022-08-28T23:06:23.125Z,100912.28
2022-08-28T23:08:51.025Z,100911.92
2022-08-28T23:11:18.800Z,100914.23
2022-08-28T23:13:47.178Z,100909.25
2022-08-28T23:16:23.869Z,100910.09
2022-08-28T23:19:09.283Z,100911.14
2022-08-28T23:21:39.348Z,100910.61
2022-08-28T23:24:16.756Z,100913.42
2022-08-28T23:26:46.047Z,100911.99
2022-08-28T23:29:14.231Z,100914.83
2022-08-28T23:31:42.337Z,100910.91
2022-08-28T23:34:10.383Z,100911.44
2022-08-28T23:36:39.329Z,100910.20
2022-08-28T23:39:07.470Z,100909.29
2022-08-28T23:41:35.227Z,100906.98
2022-08-28T23:44:08.279Z,100906.59
2022-08-28T23:46:41.354Z,100904.27
2022-08-28T23:49:11.405Z,100900.70
2022-08-28T23:51:42.754Z,100899.08
2022-08-28T23:54:11.531Z,100902.60
2022-08-28T23:56:39.423Z,100905.20
2022-08-28T23:59:07.568Z,100903.73
